Time;durP1;ratioP1;P1;durP2;ratioP2;P2;SDS_P1;SDS_P2;PMS_P1;PMS_P2;Temp;Humidity;BMP_temperature;BMP_pressure;BME280_temperature;BME280_humidity;BME280_pressure;Samples;Min_cycle;Max_cycle;Signal;HPM_P1;HPM_P2
2022/07/28 00:02:05;;;;;;;18.10;10.32;;;;;;;23.88;75.77;94612.53;4946697;28;20220;-77
2022/07/28 00:04:33;;;;;;;17.00;10.15;;;;;;;23.80;74.42;94613.28;4948997;28;20205;-79
2022/07/28 00:07:01;;;;;;;15.60;10.13;;;;;;;23.72;76.07;94616.66;4950633;28;20293;-78
2022/07/28 00:09:29;;;;;;;17.55;10.25;;;;;;;23.66;75.68;94617.84;4949213;28;20240;-79
2022/07/28 00:11:56;;;;;;;15.02;9.48;;;;;;;23.62;76.40;94615.00;4951638;28;20209;-80
2022/07/28 00:14:24;;;;;;;16.13;9.68;;;;;;;23.73;76.09;94626.16;4952530;28;20213;-78
2022/07/28 00:16:51;;;;;;;12.75;9.25;;;;;;;23.71;76.42;94633.66;4952997;28;20220;-79
2022/07/28 00:19:19;;;;;;;14.93;9.40;;;;;;;23.75;76.92;94653.22;4951164;28;20204;-79
2022/07/28 00:21:46;;;;;;;12.15;9.27;;;;;;;23.62;80.28;94635.44;4951014;28;20205;-79
2022/07/28 00:24:13;;;;;;;19.88;10.18;;;;;;;23.58;82.14;94653.84;4949027;28;20458;-79
2022/07/28 00:26:41;;;;;;;17.85;9.85;;;;;;;23.48;86.32;94645.31;4952302;28;20213;-79
2022/07/28 00:29:08;;;;;;;21.52;11.13;;;;;;;23.29;92.47;94623.44;4950345;28;20311;-79
2022/07/28 00:31:35;;;;;;;23.70;11.38;;;;;;;23.01;99.06;94598.78;4952075;28;20798;-79
2022/07/28 00:34:02;;;;;;;15.25;10.93;;;;;;;22.88;100.00;94591.66;4951473;28;20673;-79
2022/07/28 00:36:29;;;;;;;17.42;10.88;;;;;;;22.89;100.00;94591.34;4948987;28;20221;-80
2022/07/28 00:38:56;;;;;;;16.63;10.25;;;;;;;22.74;100.00;94577.63;4952796;28;20206;-78
2022/07/28 00:41:22;;;;;;;14.45;9.77;;;;;;;22.71;100.00;94559.66;4950183;28;20213;-77
2022/07/28 00:43:52;;;;;;;14.10;10.13;;;;;;;22.40;100.00;94538.22;4948333;28;20692;-78
2022/07/28 00:46:21;;;;;;;13.68;10.23;;;;;;;22.45;100.00;94549.50;4948845;28;20202;-77
2022/07/28 00:48:50;;;;;;;12.48;10.05;;;;;;;22.35;100.00;94580.72;4949339;28;20229;-78
2022/07/28 00:51:18;;;;;;;14.00;10.20;;;;;;;22.07;100.00;94600.28;4950934;28;20237;-78
2022/07/28 00:53:46;;;;;;;15.57;11.20;;;;;;;21.80;100.00;94614.97;4947837;28;20224;-78
2022/07/28 00:56:14;;;;;;;14.80;10.57;;;;;;;21.60;100.00;94615.28;4947362;28;20213;-78
2022/07/28 00:58:41;;;;;;;18.27;11.63;;;;;;;21.48;100.00;94613.06;4948370;28;20201;-79
2022/07/28 01:01:14;;;;;;;16.23;10.30;;;;;;;21.58;100.00;94616.63;4951822;28;20213;-78
2022/07/28 01:03:44;;;;;;;14.95;11.32;;;;;;;21.53;100.00;94625.41;4950692;28;20665;-79
2022/07/28 01:06:21;;;;;;;12.25;10.43;;;;;;;21.60;100.00;94619.78;4949752;28;20351;-78
2022/07/28 01:08:58;;;;;;;12.05;10.20;;;;;;;21.60;100.00;94635.66;4948417;28;20229;-77
2022/07/28 01:11:31;;;;;;;12.93;10.07;;;;;;;21.48;100.00;94641.38;4950174;28;20224;-77
2022/07/28 01:14:07;;;;;;;15.65;10.48;;;;;;;21.52;100.00;94644.22;4952505;28;20220;-77
2022/07/28 01:16:41;;;;;;;15.65;10.15;;;;;;;21.46;100.00;94644.31;4948952;28;20213;-77
2022/07/28 01:19:14;;;;;;;13.25;10.60;;;;;;;21.46;100.00;94648.81;4946890;28;20201;-77
2022/07/28 01:21:43;;;;;;;13.63;10.85;;;;;;;21.45;100.00;94634.78;4947352;28;20657;-77
2022/07/28 01:24:22;;;;;;;15.50;11.60;;;;;;;21.36;100.00;94614.56;4947793;28;20213;-77
2022/07/28 01:26:57;;;;;;;17.73;10.93;;;;;;;21.53;100.00;94614.84;4947410;28;20201;-77
2022/07/28 01:29:38;;;;;;;14.80;11.10;;;;;;;21.68;100.00;94611.97;4947933;28;20244;-80
2022/07/28 01:32:10;;;;;;;15.68;10.85;;;;;;;21.77;100.00;94612.09;4944698;28;20216;-80
2022/07/28 01:34:45;;;;;;;14.75;10.82;;;;;;;21.78;100.00;94616.34;4950504;28;20268;-80
2022/07/28 01:37:19;;;;;;;14.32;10.60;;;;;;;21.78;100.00;94613.69;4950687;28;20213;-80
2022/07/28 01:39:52;;;;;;;17.08;11.05;;;;;;;21.82;100.00;94615.44;4955209;28;20197;-80
2022/07/28 01:42:23;;;;;;;14.27;10.75;;;;;;;21.76;100.00;94599.97;4947561;28;20261;-79
2022/07/28 01:44:53;;;;;;;13.77;11.30;;;;;;;21.77;100.00;94609.47;4948750;28;20201;-78
2022/07/28 01:47:23;;;;;;;12.57;10.10;;;;;;;21.82;100.00;94604.88;4949954;28;20201;-79
2022/07/28 01:49:52;;;;;;;14.45;10.38;;;;;;;21.80;100.00;94608.88;4949024;28;20236;-79
2022/07/28 01:52:20;;;;;;;15.00;10.65;;;;;;;21.78;100.00;94603.09;4948477;28;20229;-80
2022/07/28 01:54:47;;;;;;;14.13;10.80;;;;;;;21.86;100.00;94610.38;4950576;28;20208;-79
2022/07/28 01:57:16;;;;;;;15.65;11.88;;;;;;;21.84;100.00;94615.19;4949675;28;20217;-80
2022/07/28 01:59:44;;;;;;;14.35;11.75;;;;;;;21.78;100.00;94608.41;4953350;28;20201;-80
2022/07/28 02:02:12;;;;;;;13.88;12.13;;;;;;;21.79;100.00;94607.31;4956185;28;20271;-82
2022/07/28 02:04:43;;;;;;;14.32;11.07;;;;;;;21.73;100.00;94611.13;4950382;28;20208;-81
2022/07/28 02:07:12;;;;;;;13.75;11.50;;;;;;;21.83;100.00;94616.25;4947606;28;20664;-81
2022/07/28 02:09:40;;;;;;;16.40;12.07;;;;;;;21.90;100.00;94616.72;4957219;28;20224;-81
2022/07/28 02:12:09;;;;;;;14.45;12.20;;;;;;;21.91;100.00;94621.69;4948770;28;20216;-81
2022/07/28 02:14:38;;;;;;;15.93;12.15;;;;;;;21.91;100.00;94621.69;4947626;28;20220;-79
2022/07/28 02:17:11;;;;;;;17.30;12.30;;;;;;;21.95;100.00;94629.84;4949439;28;20208;-80
2022/07/28 02:19:41;;;;;;;15.45;11.98;;;;;;;21.94;100.00;94630.91;4953115;28;20205;-80
2022/07/28 02:22:09;;;;;;;13.32;11.10;;;;;;;21.90;100.00;94627.28;4956117;28;20232;-81
2022/07/28 02:24:38;;;;;;;15.75;11.95;;;;;;;21.81;100.00;94632.44;4947350;28;20197;-80
2022/07/28 02:27:09;;;;;;;17.77;12.02;;;;;;;21.79;100.00;94626.63;4948734;28;20216;-81
2022/07/28 02:29:43;;;;;;;14.23;11.65;;;;;;;21.83;100.00;94632.13;4946447;28;20213;-80
2022/07/28 02:32:17;;;;;;;14.25;10.75;;;;;;;21.82;100.00;94636.63;4946268;28;20202;-77
2022/07/28 02:34:47;;;;;;;12.73;10.93;;;;;;;21.76;100.00;94631.72;4946501;28;20229;-78
2022/07/28 02:37:16;;;;;;;11.93;10.73;;;;;;;21.66;100.00;94619.41;4947522;28;20680;-78
2022/07/28 02:39:46;;;;;;;11.88;10.63;;;;;;;21.73;100.00;94625.13;4951132;28;20205;-77
2022/07/28 02:42:17;;;;;;;14.02;11.48;;;;;;;21.70;100.00;94623.03;4948390;28;20220;-76
2022/07/28 02:44:49;;;;;;;12.82;11.07;;;;;;;21.67;100.00;94613.06;4950006;28;20246;-76
2022/07/28 02:47:22;;;;;;;13.23;11.05;;;;;;;21.70;100.00;94607.16;4948453;28;20210;-78
2022/07/28 02:49:52;;;;;;;14.07;11.20;;;;;;;21.70;100.00;94620.41;4948355;28;20213;-78
2022/07/28 02:52:22;;;;;;;14.43;11.48;;;;;;;21.68;100.00;94621.75;4946216;28;20244;-77
2022/07/28 02:54:50;;;;;;;13.20;10.70;;;;;;;21.60;100.00;94627.72;4947695;28;20292;-78
2022/07/28 02:57:18;;;;;;;16.45;11.70;;;;;;;21.51;100.00;94619.63;4945620;28;20680;-77
2022/07/28 02:59:47;;;;;;;14.63;10.75;;;;;;;21.66;100.00;94624.72;4947292;28;20213;-78
2022/07/28 03:02:15;;;;;;;13.57;10.93;;;;;;;21.73;100.00;94629.66;4950661;28;20214;-78
2022/07/28 03:04:57;;;;;;;15.38;11.25;;;;;;;21.80;100.00;94622.13;4952561;28;20212;-79
2022/07/28 03:07:26;;;;;;;15.20;11.77;;;;;;;21.83;100.00;94627.63;4949907;28;20252;-79
2022/07/28 03:09:53;;;;;;;14.50;10.93;;;;;;;21.75;100.00;94628.28;4946814;28;20248;-79
2022/07/28 03:12:20;;;;;;;14.90;11.40;;;;;;;21.63;100.00;94617.34;4948133;28;20209;-79
2022/07/28 03:14:47;;;;;;;15.75;11.63;;;;;;;21.61;100.00;94616.84;4948924;28;20209;-79
2022/07/28 03:17:15;;;;;;;15.98;11.52;;;;;;;21.52;100.00;94601.91;4948820;28;20212;-78
2022/07/28 03:19:42;;;;;;;15.70;11.15;;;;;;;21.54;100.00;94602.41;4949091;28;20209;-79
2022/07/28 03:22:09;;;;;;;15.23;11.73;;;;;;;21.59;100.00;94610.28;4946655;28;20209;-79
2022/07/28 03:24:38;;;;;;;16.33;12.93;;;;;;;21.65;100.00;94609.09;4951847;28;20217;-80
2022/07/28 03:27:12;;;;;;;18.15;13.13;;;;;;;21.59;100.00;94605.75;4947003;28;20210;-80
2022/07/28 03:29:41;;;;;;;18.67;12.20;;;;;;;21.48;100.00;94589.25;4947949;28;20214;-80
2022/07/28 03:32:09;;;;;;;14.50;12.48;;;;;;;21.53;100.00;94603.50;4946236;28;20218;-79
2022/07/28 03:34:36;;;;;;;16.85;12.90;;;;;;;21.43;100.00;94594.63;4947234;28;20669;-79
2022/07/28 03:37:08;;;;;;;16.48;12.80;;;;;;;21.52;100.00;94592.13;4947737;28;20705;-79
2022/07/28 03:39:44;;;;;;;14.65;12.05;;;;;;;21.60;100.00;94595.97;4947697;28;20197;-79
2022/07/28 03:42:12;;;;;;;15.80;12.27;;;;;;;21.67;100.00;94588.47;4952084;28;20277;-79
2022/07/28 03:44:40;;;;;;;13.88;12.05;;;;;;;21.71;100.00;94576.22;4947540;28;20237;-79
2022/07/28 03:47:07;;;;;;;15.20;12.15;;;;;;;21.72;100.00;94591.81;4948213;28;20268;-79
2022/07/28 03:49:34;;;;;;;16.10;12.85;;;;;;;21.77;100.00;94581.13;4950706;28;20225;-77
2022/07/28 03:52:00;;;;;;;16.05;12.73;;;;;;;21.77;100.00;94581.13;4947300;28;20248;-79
2022/07/28 03:54:27;;;;;;;16.63;13.40;;;;;;;21.76;100.00;94549.69;4948082;28;20221;-79
2022/07/28 03:56:55;;;;;;;18.92;13.07;;;;;;;21.75;100.00;94543.59;4948345;28;20216;-79
2022/07/28 03:59:23;;;;;;;17.63;14.23;;;;;;;21.74;100.00;94555.25;4944024;28;20984;-79
2022/07/28 04:01:50;;;;;;;16.40;13.75;;;;;;;21.70;100.00;94575.41;4946299;28;20247;-78
2022/07/28 04:04:17;;;;;;;18.08;13.50;;;;;;;21.79;100.00;94586.91;4950908;28;20216;-78
2022/07/28 04:06:43;;;;;;;17.60;13.45;;;;;;;21.76;100.00;94590.13;4948240;28;20591;-80
2022/07/28 04:09:10;;;;;;;19.75;14.02;;;;;;;21.66;100.00;94592.16;4946184;28;20659;-78
2022/07/28 04:11:37;;;;;;;17.13;13.70;;;;;;;21.56;100.00;94600.28;4945890;28;20236;-78
2022/07/28 04:14:05;;;;;;;16.80;13.55;;;;;;;21.53;100.00;94606.13;4946793;28;20205;-78
2022/07/28 04:16:32;;;;;;;18.17;14.40;;;;;;;21.48;100.00;94594.53;4945840;28;20212;-78
2022/07/28 04:18:59;;;;;;;17.13;13.50;;;;;;;21.37;100.00;94589.69;4945534;28;20207;-78
2022/07/28 04:21:26;;;;;;;18.75;14.70;;;;;;;21.41;100.00;94574.84;4947383;28;20239;-78
2022/07/28 04:23:54;;;;;;;16.08;13.45;;;;;;;21.43;100.00;94575.31;4948236;28;20735;-78
2022/07/28 04:26:20;;;;;;;15.57;13.05;;;;;;;21.38;100.00;94600.00;4947803;28;20204;-78
2022/07/28 04:28:47;;;;;;;16.42;12.35;;;;;;;21.43;100.00;94607.06;4947067;28;20734;-77
2022/07/28 04:31:15;;;;;;;14.40;12.18;;;;;;;21.41;100.00;94609.97;4947232;28;20670;-79
2022/07/28 04:33:42;;;;;;;17.02;13.57;;;;;;;21.40;100.00;94611.06;4947620;28;20664;-79
2022/07/28 04:36:10;;;;;;;17.10;13.85;;;;;;;21.41;100.00;94609.22;4947141;28;20213;-79
2022/07/28 04:38:37;;;;;;;16.73;13.52;;;;;;;21.43;100.00;94639.59;4944487;28;20236;-78
2022/07/28 04:41:04;;;;;;;17.75;14.13;;;;;;;21.21;100.00;94635.94;4945812;28;20657;-79
2022/07/28 04:43:30;;;;;;;16.40;14.10;;;;;;;21.14;100.00;94638.91;4949106;28;20213;-78
2022/07/28 04:45:57;;;;;;;17.60;14.18;;;;;;;21.22;100.00;94617.13;4946080;28;20308;-78
2022/07/28 04:48:26;;;;;;;16.42;13.98;;;;;;;21.29;100.00;94620.22;4947243;28;20224;-77
2022/07/28 04:50:53;;;;;;;16.00;14.30;;;;;;;21.26;100.00;94628.72;4949159;28;20237;-79
2022/07/28 04:53:20;;;;;;;20.02;14.75;;;;;;;21.22;100.00;94637.47;4949873;28;20209;-79
2022/07/28 04:55:48;;;;;;;18.48;14.45;;;;;;;21.33;100.00;94649.50;4950392;28;20741;-78
2022/07/28 04:58:17;;;;;;;17.00;14.48;;;;;;;21.40;100.00;94660.53;4947897;28;20201;-79
2022/07/28 05:00:44;;;;;;;20.33;15.43;;;;;;;21.40;100.00;94645.44;4951672;28;20202;-78
2022/07/28 05:03:11;;;;;;;16.88;14.18;;;;;;;21.41;100.00;94639.06;4954705;28;20210;-86
2022/07/28 05:05:39;;;;;;;20.63;14.85;;;;;;;21.32;100.00;94622.28;4953316;28;20205;-86
2022/07/28 05:08:06;;;;;;;19.35;14.88;;;;;;;21.40;100.00;94623.50;4951890;28;20216;-81
2022/07/28 05:10:33;;;;;;;16.05;14.10;;;;;;;21.43;100.00;94618.44;4947151;28;20602;-80
2022/07/28 05:13:05;;;;;;;17.33;14.23;;;;;;;21.44;100.00;94621.88;4948724;28;20190;-77
2022/07/28 05:15:31;;;;;;;22.88;16.02;;;;;;;21.43;100.00;94633.50;4946607;28;20241;-78
2022/07/28 05:17:58;;;;;;;21.23;16.02;;;;;;;21.41;100.00;94639.06;4955117;28;20755;-77
2022/07/28 05:20:25;;;;;;;19.75;16.05;;;;;;;21.48;100.00;94649.28;4949356;28;20210;-78
2022/07/28 05:22:53;;;;;;;21.33;15.95;;;;;;;21.47;100.00;94647.75;4949608;28;21169;-78
2022/07/28 05:25:22;;;;;;;19.95;14.25;;;;;;;21.40;100.00;94656.03;4949071;28;20201;-78
2022/07/28 05:27:50;;;;;;;23.33;15.52;;;;;;;21.26;100.00;94662.28;4952445;28;20640;-78
2022/07/28 05:30:18;;;;;;;18.92;14.88;;;;;;;21.19;100.00;94657.34;4951042;28;20259;-78
2022/07/28 05:32:46;;;;;;;24.05;15.20;;;;;;;21.20;100.00;94661.56;4949822;28;20664;-78
2022/07/28 05:35:13;;;;;;;18.40;14.93;;;;;;;21.27;100.00;94653.31;4950020;28;20220;-77
2022/07/28 05:37:40;;;;;;;17.88;14.35;;;;;;;21.35;100.00;94647.38;4950947;28;20210;-78
2022/07/28 05:40:12;;;;;;;20.92;15.30;;;;;;;21.44;100.00;94640.38;4948611;28;20213;-78
2022/07/28 05:42:39;;;;;;;18.45;15.23;;;;;;;21.58;100.00;94656.31;4950183;28;20208;-79
2022/07/28 05:45:09;;;;;;;21.45;15.23;;;;;;;21.69;100.00;94655.09;4951925;28;20224;-76
2022/07/28 05:47:42;;;;;;;17.67;14.32;;;;;;;21.67;100.00;94658.03;4952560;28;20280;-82
2022/07/28 05:50:10;;;;;;;20.20;15.27;;;;;;;21.70;100.00;94646.84;4951508;28;20276;-82
2022/07/28 05:52:37;;;;;;;20.85;14.45;;;;;;;21.69;100.00;94644.50;4949313;28;20326;-83
2022/07/28 05:55:06;;;;;;;17.63;14.48;;;;;;;21.75;100.00;94652.09;4951895;28;20225;-77
2022/07/28 05:57:34;;;;;;;17.52;15.10;;;;;;;21.79;100.00;94645.13;4946976;28;20205;-77
2022/07/28 06:00:01;;;;;;;19.60;14.98;;;;;;;21.79;100.00;94639.09;4945384;28;20206;-77
2022/07/28 06:02:28;;;;;;;17.20;14.95;;;;;;;21.82;100.00;94633.19;4947901;28;20217;-75
2022/07/28 06:04:54;;;;;;;20.10;14.77;;;;;;;21.89;100.00;94644.25;4949080;28;20281;-75
2022/07/28 06:07:21;;;;;;;21.13;15.23;;;;;;;22.01;100.00;94645.38;4951389;28;20241;-75
2022/07/28 06:09:48;;;;;;;18.33;14.88;;;;;;;22.04;100.00;94634.22;4948066;28;20217;-75
2022/07/28 06:12:15;;;;;;;17.77;14.18;;;;;;;22.07;100.00;94630.19;4945200;28;20238;-75
2022/07/28 06:14:43;;;;;;;17.55;14.50;;;;;;;22.12;100.00;94639.91;4944018;28;20219;-75
2022/07/28 06:17:10;;;;;;;17.42;14.77;;;;;;;22.11;100.00;94641.00;4949080;28;21197;-75
2022/07/28 06:19:36;;;;;;;18.65;14.60;;;;;;;22.13;100.00;94631.69;4945280;29;20209;-76
2022/07/28 06:22:05;;;;;;;19.63;14.40;;;;;;;22.22;100.00;94629.91;4949308;28;20201;-76
2022/07/28 06:24:32;;;;;;;19.27;14.23;;;;;;;22.18;100.00;94617.56;4947582;28;20205;-75
2022/07/28 06:27:00;;;;;;;17.40;14.82;;;;;;;22.30;100.00;94625.81;4948091;28;20630;-77
2022/07/28 06:29:26;;;;;;;17.65;13.65;;;;;;;22.27;100.00;94637.78;4947512;28;20217;-76
2022/07/28 06:31:55;;;;;;;18.23;14.18;;;;;;;22.24;100.00;94656.91;4953270;28;20234;-79
2022/07/28 06:34:22;;;;;;;20.85;14.23;;;;;;;22.17;100.00;94653.84;4951569;28;20228;-80
2022/07/28 06:36:49;;;;;;;17.10;14.52;;;;;;;22.26;100.00;94643.38;4948738;28;20291;-79
2022/07/28 06:39:16;;;;;;;19.02;14.40;;;;;;;22.27;100.00;94650.25;4941089;28;20212;-82
2022/07/28 06:41:43;;;;;;;19.23;15.02;;;;;;;22.22;100.00;94653.75;4947358;28;20201;-79
2022/07/28 06:44:10;;;;;;;19.17;13.98;;;;;;;22.20;100.00;94637.38;4947413;28;20212;-79
2022/07/28 06:46:40;;;;;;;19.35;14.57;;;;;;;22.38;100.00;94641.84;4906944;28;20213;-80
2022/07/28 06:49:08;;;;;;;17.90;13.70;;;;;;;22.48;100.00;94646.19;4925563;29;20241;-78
2022/07/28 06:51:36;;;;;;;20.77;15.73;;;;;;;22.49;100.00;94651.16;4949810;28;20244;-79
2022/07/28 06:54:03;;;;;;;20.27;14.30;;;;;;;22.43;100.00;94638.31;4953290;28;20259;-79
2022/07/28 06:56:30;;;;;;;19.05;14.95;;;;;;;22.45;100.00;94646.75;4946276;28;20213;-82
2022/07/28 06:58:56;;;;;;;22.58;14.85;;;;;;;22.50;100.00;94634.22;4950025;28;20708;-81
2022/07/28 07:01:23;;;;;;;19.10;14.00;;;;;;;22.81;100.00;94641.63;4949354;28;20213;-80
2022/07/28 07:03:50;;;;;;;20.33;14.38;;;;;;;23.11;100.00;94648.97;4950522;28;20208;-76
2022/07/28 07:06:18;;;;;;;19.30;15.55;;;;;;;23.21;100.00;94647.97;4946236;28;21527;-77
2022/07/28 07:08:46;;;;;;;18.98;15.38;;;;;;;23.26;100.00;94643.34;4948593;28;20213;-78
2022/07/28 07:11:13;;;;;;;21.42;15.18;;;;;;;23.22;100.00;94657.50;4949990;28;20685;-78
2022/07/28 07:13:40;;;;;;;18.83;15.45;;;;;;;23.08;100.00;94646.91;4949081;28;20261;-76
2022/07/28 07:16:07;;;;;;;21.23;16.10;;;;;;;23.12;100.00;94653.97;4948139;28;20204;-77
2022/07/28 07:18:33;;;;;;;22.85;17.27;;;;;;;23.10;100.00;94653.50;4948476;28;20216;-77
2022/07/28 07:21:00;;;;;;;23.33;16.63;;;;;;;22.99;100.00;94652.13;4948161;28;20216;-78
2022/07/28 07:23:29;;;;;;;20.60;16.98;;;;;;;22.95;100.00;94645.03;4949999;28;20220;-84
2022/07/28 07:25:56;;;;;;;23.80;16.92;;;;;;;23.01;100.00;94647.31;4951760;28;20735;-83
2022/07/28 07:28:23;;;;;;;21.50;16.30;;;;;;;23.03;100.00;94639.84;4952792;28;20213;-86
2022/07/28 07:30:49;;;;;;;22.02;16.38;;;;;;;23.20;100.00;94655.16;4953965;28;20244;-85
2022/07/28 07:33:16;;;;;;;25.02;16.75;;;;;;;23.39;100.00;94652.41;4952002;28;20568;-86
2022/07/28 07:35:43;;;;;;;26.10;16.60;;;;;;;23.69;100.00;94662.38;4953360;28;20861;-85
2022/07/28 07:38:10;;;;;;;22.17;16.17;;;;;;;23.82;100.00;94668.72;4950343;28;20194;-86
2022/07/28 07:40:39;;;;;;;19.75;16.38;;;;;;;23.95;100.00;94668.69;4951807;28;20581;-84
2022/07/28 07:43:05;;;;;;;20.55;16.88;;;;;;;23.94;100.00;94672.41;4952262;28;20304;-85
2022/07/28 07:45:33;;;;;;;20.25;16.60;;;;;;;23.63;100.00;94660.91;4949631;28;20209;-84
2022/07/28 07:48:01;;;;;;;21.10;15.95;;;;;;;23.75;100.00;94677.13;4951972;28;20280;-84
2022/07/28 07:50:28;;;;;;;19.15;14.60;;;;;;;23.85;100.00;94681.38;4945960;28;20261;-84
2022/07/28 07:52:55;;;;;;;17.65;14.68;;;;;;;23.96;100.00;94685.38;4927053;29;20277;-78
2022/07/28 07:55:21;;;;;;;18.88;14.60;;;;;;;24.12;100.00;94692.75;4928848;29;20229;-85
2022/07/28 07:57:50;;;;;;;15.82;14.13;;;;;;;24.31;100.00;94694.41;4933592;29;20210;-85
2022/07/28 08:00:18;;;;;;;21.20;14.45;;;;;;;24.52;100.00;94695.50;4933021;29;20213;-86
2022/07/28 08:02:45;;;;;;;17.92;15.00;;;;;;;24.70;99.42;94703.25;4932498;29;20289;-85
2022/07/28 08:05:11;;;;;;;17.80;14.65;;;;;;;24.78;98.26;94699.09;4931345;29;20210;-79
2022/07/28 08:07:38;;;;;;;19.50;14.43;;;;;;;24.63;97.10;94702.13;4937241;29;20210;-79
2022/07/28 08:10:07;;;;;;;17.17;13.68;;;;;;;24.51;98.12;94701.91;4931202;29;20217;-79
2022/07/28 08:12:34;;;;;;;18.05;14.00;;;;;;;24.58;97.32;94697.75;4924771;29;21008;-79
2022/07/28 08:15:02;;;;;;;19.67;13.98;;;;;;;24.64;98.14;94691.22;4930118;29;20748;-83
2022/07/28 08:17:29;;;;;;;17.85;12.55;;;;;;;24.78;96.08;94699.09;4931511;29;20573;-85
2022/07/28 08:19:56;;;;;;;16.73;13.70;;;;;;;24.91;96.42;94689.47;4935529;29;20222;-89
2022/07/28 08:22:23;;;;;;;21.15;13.52;;;;;;;25.04;98.22;94693.91;4931313;29;20210;-84
2022/07/28 08:24:51;;;;;;;15.05;13.45;;;;;;;25.23;97.48;94702.44;4944384;29;20215;-86
2022/07/28 08:27:18;;;;;;;18.38;13.63;;;;;;;25.34;95.87;94706.38;4942821;29;20205;-85
2022/07/28 08:29:45;;;;;;;17.77;13.82;;;;;;;25.32;94.83;94709.34;4933767;29;20209;-74
2022/07/28 08:32:13;;;;;;;16.73;13.10;;;;;;;25.36;93.29;94712.19;4933131;29;20230;-84
2022/07/28 08:34:40;;;;;;;18.65;12.60;;;;;;;25.30;93.16;94695.59;4935876;29;20206;-86
2022/07/28 08:37:07;;;;;;;18.30;12.85;;;;;;;25.40;91.18;94713.91;4929690;29;20210;-84
2022/07/28 08:39:35;;;;;;;21.45;13.05;;;;;;;25.47;93.00;94718.78;4936201;29;20237;-76
2022/07/28 08:42:05;;;;;;;16.92;13.90;;;;;;;25.49;92.77;94716.63;4938443;29;20217;-85
2022/07/28 08:44:41;;;;;;;14.40;12.38;;;;;;;25.60;91.99;94712.56;4937287;29;20631;-85
2022/07/28 08:47:10;;;;;;;14.93;12.05;;;;;;;25.61;89.78;94714.16;4941180;29;20209;-84
2022/07/28 08:49:41;;;;;;;15.07;12.23;;;;;;;25.62;88.42;94715.72;4942630;29;20728;-84
2022/07/28 08:52:10;;;;;;;16.40;12.40;;;;;;;25.63;89.18;94719.94;4950144;28;20331;-84
2022/07/28 08:54:42;;;;;;;15.95;12.70;;;;;;;25.73;88.96;94722.34;4957653;28;20272;-85
2022/07/28 08:57:12;;;;;;;16.98;13.05;;;;;;;25.93;91.24;94729.72;4955977;28;20233;-79
2022/07/28 08:59:39;;;;;;;19.88;12.75;;;;;;;26.09;89.06;94730.03;4954111;28;20216;-79
2022/07/28 09:02:06;;;;;;;16.13;12.90;;;;;;;26.22;86.99;94739.00;4950472;28;20221;-78
2022/07/28 09:04:35;;;;;;;17.17;13.25;;;;;;;26.31;88.57;94727.25;4952004;28;20204;-77
2022/07/28 09:07:05;;;;;;;15.48;12.35;;;;;;;26.45;85.04;94724.41;4949749;28;20288;-79
2022/07/28 09:09:32;;;;;;;17.73;13.48;;;;;;;26.50;84.77;94726.91;4950814;28;20605;-80
2022/07/28 09:11:59;;;;;;;14.30;12.32;;;;;;;26.53;84.57;94728.94;4952964;28;20225;-79
2022/07/28 09:14:26;;;;;;;19.20;13.82;;;;;;;26.57;85.91;94734.44;4949383;28;20268;-80
2022/07/28 09:16:53;;;;;;;14.13;12.70;;;;;;;26.47;86.33;94725.66;4953361;28;20217;-81
2022/07/28 09:19:20;;;;;;;17.40;13.10;;;;;;;26.49;85.89;94725.38;4952359;28;20220;-84
2022/07/28 09:21:47;;;;;;;18.65;13.32;;;;;;;26.48;85.49;94719.25;4953053;28;20198;-88
2022/07/28 09:24:38;;;;;;;17.63;13.02;;;;;;;26.56;86.72;94722.19;4954143;28;20559;-86
2022/07/28 09:27:06;;;;;;;16.90;14.27;;;;;;;26.52;86.52;94712.16;4957654;28;20235;-86
2022/07/28 09:29:34;;;;;;;19.75;13.95;;;;;;;26.54;85.74;94722.53;4954575;28;20269;-87
2022/07/28 09:32:01;;;;;;;16.58;13.90;;;;;;;26.54;86.67;94713.72;4953476;28;20711;-86
2022/07/28 09:34:28;;;;;;;17.85;13.23;;;;;;;26.60;84.99;94704.47;4956087;28;20198;-86
2022/07/28 09:36:55;;;;;;;19.42;14.30;;;;;;;26.58;86.32;94715.44;4955411;28;20221;-87
2022/07/28 09:39:32;;;;;;;18.52;14.73;;;;;;;26.61;86.19;94717.47;4952622;28;20221;-85
2022/07/28 09:42:01;;;;;;;15.70;13.52;;;;;;;26.70;85.83;94723.59;4954085;28;20251;-86
2022/07/28 09:44:28;;;;;;;22.88;14.02;;;;;;;26.76;83.65;94714.31;4952825;28;20217;-87
2022/07/28 09:46:56;;;;;;;19.30;14.73;;;;;;;26.91;83.85;94718.38;4956995;28;20205;-86
2022/07/28 09:49:39;;;;;;;17.23;14.35;;;;;;;26.95;84.20;94704.09;4954734;28;20216;-86
2022/07/28 09:52:06;;;;;;;18.13;15.18;;;;;;;27.13;84.83;94725.41;4950565;28;20271;-85
2022/07/28 09:54:33;;;;;;;17.17;14.77;;;;;;;27.24;85.14;94727.38;4948559;28;20595;-86
2022/07/28 09:57:02;;;;;;;16.33;14.10;;;;;;;27.47;81.84;94731.41;4952982;28;20202;-87
2022/07/28 09:59:40;;;;;;;16.35;12.85;;;;;;;27.74;79.67;94727.47;4952655;28;20209;-86
2022/07/28 10:02:07;;;;;;;20.65;14.43;;;;;;;27.91;79.71;94732.69;4948444;28;20201;-85
2022/07/28 10:04:36;;;;;;;25.13;17.48;;;;;;;27.87;78.99;94726.44;4950255;28;20289;-87
2022/07/28 10:07:06;;;;;;;20.35;15.98;;;;;;;27.55;81.33;94711.06;4951689;28;20217;-85
2022/07/28 10:09:34;;;;;;;20.98;15.45;;;;;;;27.65;81.76;94717.94;4953785;28;20232;-85
2022/07/28 10:12:20;;;;;;;22.80;16.25;;;;;;;27.81;79.76;94724.28;4952134;28;20236;-86
2022/07/28 10:14:47;;;;;;;20.23;14.32;;;;;;;27.99;76.92;94717.72;4946732;28;20256;-86
2022/07/28 10:17:26;;;;;;;19.23;14.35;;;;;;;27.92;77.72;94722.78;4947597;28;20209;-85
2022/07/28 10:19:56;;;;;;;19.23;13.13;;;;;;;27.75;75.52;94707.66;4947862;28;20213;-83
2022/07/28 10:22:27;;;;;;;16.85;12.77;;;;;;;27.61;77.31;94715.13;4944998;28;20214;-83
2022/07/28 10:24:56;;;;;;;13.88;12.38;;;;;;;27.69;77.22;94710.84;4949090;28;20208;-84
2022/07/28 10:27:25;;;;;;;16.05;11.50;;;;;;;27.82;75.93;94718.59;4950268;28;20213;-83
2022/07/28 10:29:57;;;;;;;14.57;12.20;;;;;;;27.90;75.06;94715.09;4951390;28;20221;-84
2022/07/28 10:32:23;;;;;;;17.02;11.30;;;;;;;27.71;73.65;94705.94;4951568;28;20225;-85
2022/07/28 10:34:54;;;;;;;12.73;10.63;;;;;;;27.70;73.24;94707.84;4950903;28;20220;-82
2022/07/28 10:37:23;;;;;;;12.95;10.55;;;;;;;27.83;72.73;94714.81;4948696;28;20208;-83
2022/07/28 10:39:57;;;;;;;13.65;10.70;;;;;;;27.93;71.66;94714.47;4951738;28;20204;-86
2022/07/28 10:42:26;;;;;;;13.05;10.57;;;;;;;28.10;71.48;94717.03;4948037;28;20209;-83
2022/07/28 10:44:55;;;;;;;12.68;10.27;;;;;;;28.29;71.40;94708.53;4948558;28;20222;-84
2022/07/28 10:47:23;;;;;;;16.70;11.65;;;;;;;28.72;70.36;94705.47;4948468;28;20214;-85
2022/07/28 10:49:50;;;;;;;12.55;10.68;;;;;;;29.10;67.89;94695.28;4951764;28;20296;-83
2022/07/28 10:52:18;;;;;;;11.90;10.30;;;;;;;29.55;67.02;94697.13;4945436;29;20252;-84
2022/07/28 10:54:55;;;;;;;15.48;11.55;;;;;;;30.01;67.01;94702.00;4938586;29;20214;-84
2022/07/28 10:57:23;;;;;;;12.63;10.85;;;;;;;30.30;64.59;94693.63;4935184;29;20226;-83
2022/07/28 11:00:07;;;;;;;13.52;11.13;;;;;;;30.56;63.65;94693.22;4935970;29;20213;-84
2022/07/28 11:02:44;;;;;;;13.05;10.93;;;;;;;30.77;63.97;94690.31;4934203;29;20595;-86
2022/07/28 11:05:26;;;;;;;15.30;10.95;;;;;;;30.81;63.02;94693.88;4938549;29;20220;-89
2022/07/28 11:07:53;;;;;;;15.50;10.80;;;;;;;30.90;63.54;94691.81;4935661;29;20224;-87
2022/07/28 11:10:21;;;;;;;12.00;10.63;;;;;;;30.94;61.96;94687.31;4930057;29;20222;-86
2022/07/28 11:12:49;;;;;;;11.27;10.07;;;;;;;31.18;60.85;94681.00;4932166;29;20357;-87
2022/07/28 11:15:32;;;;;;;12.25;10.35;;;;;;;31.43;58.90;94672.41;4936491;29;20324;-86
2022/07/28 11:18:06;;;;;;;11.02;9.60;;;;;;;31.60;57.26;94682.06;4937204;29;20218;-86
2022/07/28 11:21:06;;;;;;;13.32;10.27;;;;;;;31.82;55.72;94681.38;4937438;29;20236;-87